createdAt,value
2019-02-25T00:00:56.829Z,24.18
2019-02-25T00:03:24.352Z,21.75
2019-02-25T00:05:51.650Z,23.42
2019-02-25T00:08:19.036Z,23.67
2019-02-25T00:10:46.467Z,23.02
2019-02-25T00:13:20.656Z,22.98
2019-02-25T00:15:48.490Z,23.10
2019-02-25T00:18:17.411Z,23.02
2019-02-25T00:20:44.764Z,24.30
2019-02-25T00:23:12.073Z,21.60
2019-02-25T00:25:39.358Z,23.50
2019-02-25T00:28:06.672Z,22.15
2019-02-25T00:30:33.970Z,22.70
2019-02-25T00:33:01.288Z,21.20
2019-02-25T00:35:28.598Z,22.13
2019-02-25T00:37:55.974Z,20.10
2019-02-25T00:40:23.274Z,22.37
2019-02-25T00:42:50.556Z,23.12
2019-02-25T00:45:17.984Z,24.50
2019-02-25T00:47:45.296Z,23.65
2019-02-25T00:50:16.799Z,23.20
2019-02-25T00:52:44.174Z,23.20
2019-02-25T00:55:11.778Z,22.65
2019-02-25T00:57:39.069Z,21.52
2019-02-25T01:00:10.608Z,21.70
2019-02-25T01:02:37.916Z,23.18
2019-02-25T01:05:05.712Z,22.77
2019-02-25T01:07:33.086Z,22.30
2019-02-25T01:10:00.466Z,20.30
2019-02-25T01:12:27.777Z,22.32
2019-02-25T01:14:55.174Z,22.20
2019-02-25T01:17:22.544Z,21.85
2019-02-25T01:19:49.900Z,20.92
2019-02-25T01:22:17.219Z,21.33
2019-02-25T01:24:44.525Z,21.10
2019-02-25T01:27:11.845Z,22.00
2019-02-25T01:29:39.144Z,21.07
2019-02-25T01:32:06.428Z,21.23
2019-02-25T01:34:40.673Z,22.02
2019-02-25T01:37:07.970Z,21.33
2019-02-25T01:39:35.288Z,21.10
2019-02-25T01:42:02.600Z,21.95
2019-02-25T01:44:29.906Z,20.92
2019-02-25T01:46:57.208Z,22.07
2019-02-25T01:49:24.528Z,21.60
2019-02-25T01:51:51.824Z,22.95
2019-02-25T01:54:19.216Z,20.00
2019-02-25T01:56:46.649Z,21.12
2019-02-25T01:59:13.999Z,20.35
2019-02-25T02:01:41.401Z,21.20
2019-02-25T02:04:08.746Z,22.10
2019-02-25T02:06:36.041Z,22.02
2019-02-25T02:09:04.532Z,21.42
2019-02-25T02:11:31.831Z,21.17
2019-02-25T02:13:59.151Z,20.40
2019-02-25T02:16:26.621Z,21.77
2019-02-25T02:18:53.884Z,20.85
2019-02-25T02:21:21.238Z,20.10
2019-02-25T02:23:48.899Z,18.85
2019-02-25T02:26:16.427Z,20.48
2019-02-25T02:28:43.711Z,20.20
2019-02-25T02:31:11.048Z,21.48
2019-02-25T02:33:38.412Z,21.30
2019-02-25T02:36:05.726Z,20.35
2019-02-25T02:38:33.003Z,20.12
2019-02-25T02:41:00.370Z,19.87
2019-02-25T02:43:27.675Z,20.48
2019-02-25T02:45:56.506Z,20.37
2019-02-25T02:48:25.347Z,21.90
2019-02-25T02:50:52.671Z,19.67
2019-02-25T02:53:20.202Z,20.90
2019-02-25T02:55:47.869Z,20.70
2019-02-25T02:58:15.161Z,19.17
2019-02-25T03:00:42.655Z,20.40
2019-02-25T03:03:10.029Z,20.15
2019-02-25T03:05:37.439Z,20.60
2019-02-25T03:08:04.827Z,19.92
2019-02-25T03:10:32.142Z,20.45
2019-02-25T03:12:59.481Z,20.27
2019-02-25T03:15:26.804Z,20.37
2019-02-25T03:17:54.176Z,19.75
2019-02-25T03:20:21.502Z,20.60
2019-02-25T03:22:48.911Z,19.95
2019-02-25T03:25:17.047Z,22.80
2019-02-25T03:27:44.474Z,20.10
2019-02-25T03:30:13.408Z,22.93
2019-02-25T03:32:40.780Z,24.02
2019-02-25T03:35:08.240Z,25.45
2019-02-25T03:37:35.649Z,24.50
2019-02-25T03:40:03.748Z,23.40
2019-02-25T03:42:31.086Z,23.87
2019-02-25T03:44:58.705Z,22.13
2019-02-25T03:47:26.340Z,20.40
2019-02-25T03:49:53.705Z,20.40
2019-02-25T03:52:21.043Z,19.85
2019-02-25T03:54:48.400Z,20.65
2019-02-25T03:57:16.933Z,20.97
2019-02-25T03:59:44.292Z,20.50
2019-02-25T04:02:12.348Z,20.30
2019-02-25T04:04:39.746Z,20.90
2019-02-25T04:07:07.236Z,19.82
2019-02-25T04:09:34.664Z,19.77
2019-02-25T04:12:01.978Z,19.30
2019-02-25T04:14:29.420Z,18.37
2019-02-25T04:16:56.948Z,17.75
2019-02-25T04:19:24.328Z,18.67
2019-02-25T04:21:52.121Z,17.42
2019-02-25T04:24:19.534Z,17.85
2019-02-25T04:26:46.898Z,17.50
2019-02-25T04:29:14.196Z,17.07
2019-02-25T04:31:41.540Z,17.80
2019-02-25T04:34:14.280Z,16.50
2019-02-25T04:36:41.701Z,17.75
2019-02-25T04:39:09.143Z,17.27
2019-02-25T04:41:36.462Z,18.00
2019-02-25T04:44:03.863Z,17.25
2019-02-25T04:46:31.212Z,18.52
2019-02-25T04:48:58.632Z,17.70
2019-02-25T04:51:25.946Z,17.52
2019-02-25T04:53:53.460Z,16.23
2019-02-25T04:56:20.834Z,16.05
2019-02-25T04:58:48.263Z,16.27
2019-02-25T05:01:15.601Z,16.55
2019-02-25T05:03:43.077Z,16.70
2019-02-25T05:06:10.500Z,15.70
2019-02-25T05:08:37.906Z,15.80
2019-02-25T05:11:05.433Z,14.55
2019-02-25T05:13:32.935Z,15.88
2019-02-25T05:16:00.389Z,14.30
2019-02-25T05:18:27.933Z,16.85
2019-02-25T05:20:55.356Z,16.02
2019-02-25T05:23:22.744Z,15.90
2019-02-25T05:25:50.142Z,15.72
2019-02-25T05:28:17.564Z,16.62
2019-02-25T05:30:45.048Z,15.25
2019-02-25T05:33:12.419Z,16.37
2019-02-25T05:35:39.862Z,16.15
2019-02-25T05:38:07.264Z,14.80
2019-02-25T05:40:34.667Z,16.90
2019-02-25T05:43:02.039Z,14.98
2019-02-25T05:45:29.328Z,15.60
2019-02-25T05:47:56.707Z,16.07
2019-02-25T05:50:24.018Z,16.15
2019-02-25T05:52:51.343Z,16.75
2019-02-25T05:55:18.757Z,15.93
2019-02-25T05:57:46.445Z,16.00
2019-02-25T06:00:21.880Z,16.48
2019-02-25T06:02:49.564Z,16.42
2019-02-25T06:05:17.053Z,16.37
2019-02-25T06:07:44.558Z,14.70
2019-02-25T06:10:12.841Z,15.10
2019-02-25T06:12:40.229Z,15.58
2019-02-25T06:15:09.189Z,15.70
2019-02-25T06:17:36.821Z,14.60
2019-02-25T06:20:05.663Z,14.98
2019-02-25T06:22:33.041Z,14.43
2019-02-25T06:25:00.424Z,16.00
2019-02-25T06:27:30.676Z,17.40
2019-02-25T06:29:56.809Z,15.53
2019-02-25T06:32:24.145Z,15.50
2019-02-25T06:34:51.547Z,16.20
2019-02-25T06:37:19.002Z,16.23
2019-02-25T06:39:46.379Z,14.70
2019-02-25T06:42:13.744Z,14.50
2019-02-25T06:44:41.157Z,15.55
2019-02-25T06:47:08.497Z,15.50
2019-02-25T06:49:35.777Z,16.07
2019-02-25T06:52:04.885Z,15.43
2019-02-25T06:54:32.179Z,17.48
2019-02-25T06:56:59.462Z,17.25
2019-02-25T06:59:26.769Z,18.00
2019-02-25T07:01:54.051Z,19.57
2019-02-25T07:04:28.672Z,16.95
2019-02-25T07:07:00.561Z,22.45
2019-02-25T07:09:38.938Z,23.42
2019-02-25T07:12:07.985Z,21.02
2019-02-25T07:14:42.953Z,20.55
2019-02-25T07:17:11.899Z,23.55
2019-02-25T07:19:59.262Z,22.42
2019-02-25T07:22:28.196Z,22.15
2019-02-25T07:24:57.126Z,20.45
2019-02-25T07:27:28.769Z,23.35
2019-02-25T07:29:57.759Z,20.97
2019-02-25T07:32:26.700Z,22.37
2019-02-25T07:35:04.879Z,23.02
2019-02-25T07:37:33.804Z,23.27
2019-02-25T07:40:08.500Z,24.82
2019-02-25T07:42:43.427Z,22.70
2019-02-25T07:45:28.965Z,21.80
2019-02-25T07:48:00.994Z,22.62
2019-02-25T07:50:29.918Z,22.48
2019-02-25T07:53:01.545Z,23.80
2019-02-25T07:55:36.060Z,23.65
2019-02-25T07:58:04.988Z,22.20
2019-02-25T08:00:33.912Z,21.20
2019-02-25T08:03:21.232Z,18.20
2019-02-25T08:06:05.415Z,19.90
2019-02-25T08:08:50.610Z,21.35
2019-02-25T08:11:28.287Z,21.77
2019-02-25T08:13:59.633Z,22.60
2019-02-25T08:16:45.140Z,19.35
2019-02-25T08:19:30.557Z,20.55
2019-02-25T08:22:14.460Z,20.62
2019-02-25T08:24:46.366Z,20.77
2019-02-25T08:27:31.596Z,20.97
2019-02-25T08:30:00.565Z,21.37
2019-02-25T08:32:38.816Z,21.03
2019-02-25T08:35:14.638Z,21.90
2019-02-25T08:37:50.859Z,21.50
2019-02-25T08:40:37.594Z,20.63
2019-02-25T08:43:24.630Z,21.23
2019-02-25T08:45:53.702Z,24.63
2019-02-25T08:48:22.630Z,23.87
2019-02-25T08:50:49.940Z,23.17
2019-02-25T08:53:17.290Z,22.17
2019-02-25T08:55:44.671Z,20.63
2019-02-25T08:58:11.966Z,21.20
2019-02-25T09:00:39.250Z,21.03
2019-02-25T09:03:06.539Z,20.03
2019-02-25T09:05:33.917Z,21.83
2019-02-25T09:08:01.201Z,21.83
2019-02-25T09:10:28.474Z,21.90
2019-02-25T09:12:55.807Z,20.63
2019-02-25T09:15:23.089Z,21.73
2019-02-25T09:17:49.884Z,22.07
2019-02-25T09:20:17.183Z,20.00
2019-02-25T09:22:44.500Z,20.43
2019-02-25T09:25:12.670Z,20.83
2019-02-25T09:27:40.019Z,23.30
2019-02-25T09:30:08.955Z,20.53
2019-02-25T09:32:36.322Z,19.87
2019-02-25T09:35:05.460Z,20.13
2019-02-25T09:37:32.989Z,20.97
2019-02-25T09:40:00.485Z,19.00
2019-02-25T09:42:27.836Z,19.03
2019-02-25T09:44:55.180Z,19.23
2019-02-25T09:47:22.561Z,18.93
2019-02-25T09:49:51.074Z,20.13
2019-02-25T09:52:18.517Z,18.10
2019-02-25T09:54:45.809Z,21.20
2019-02-25T09:57:13.093Z,19.93
2019-02-25T09:59:40.374Z,20.17
2019-02-25T10:02:07.670Z,18.07
2019-02-25T10:04:34.952Z,19.40
2019-02-25T10:07:02.609Z,18.03
2019-02-25T10:09:32.437Z,18.67
2019-02-25T10:11:59.137Z,18.10
2019-02-25T10:14:26.443Z,20.20
2019-02-25T10:16:54.009Z,19.17
2019-02-25T10:19:21.485Z,18.70
2019-02-25T10:21:48.778Z,18.17
2019-02-25T10:24:16.079Z,18.13
2019-02-25T10:26:43.371Z,18.00
2019-02-25T10:29:10.707Z,18.20
2019-02-25T10:31:39.565Z,19.20
2019-02-25T10:34:07.672Z,19.03
2019-02-25T10:36:35.168Z,16.43
2019-02-25T10:39:02.455Z,19.30
2019-02-25T10:41:29.753Z,17.60
2019-02-25T10:43:58.159Z,18.70
2019-02-25T10:46:26.058Z,19.10
2019-02-25T10:48:54.945Z,18.97
2019-02-25T10:51:22.479Z,18.33
2019-02-25T10:53:51.509Z,18.53
2019-02-25T10:56:23.862Z,19.03
2019-02-25T10:58:52.315Z,18.03
2019-02-25T11:01:22.052Z,17.73
2019-02-25T11:03:49.982Z,18.80
2019-02-25T11:06:17.644Z,18.10
2019-02-25T11:08:46.600Z,18.63
2019-02-25T11:11:18.832Z,17.53
2019-02-25T11:13:47.247Z,17.87
2019-02-25T11:16:16.435Z,17.63
2019-02-25T11:18:43.704Z,17.73
2019-02-25T11:21:11.038Z,18.20
2019-02-25T11:23:38.335Z,17.60
2019-02-25T11:26:05.620Z,18.57
2019-02-25T11:28:34.359Z,18.40
2019-02-25T11:31:01.982Z,18.77
2019-02-25T11:33:30.241Z,19.73
2019-02-25T11:35:58.310Z,20.90
2019-02-25T11:38:26.516Z,19.50
2019-02-25T11:40:54.715Z,19.40
2019-02-25T11:43:22.012Z,17.30
2019-02-25T11:45:49.363Z,16.20
2019-02-25T11:48:16.650Z,15.63
2019-02-25T11:50:44.822Z,16.57
2019-02-25T11:53:12.970Z,16.30
2019-02-25T11:55:40.274Z,15.77
2019-02-25T11:58:07.626Z,16.07
2019-02-25T12:00:35.000Z,14.10
2019-02-25T12:03:02.307Z,14.50
2019-02-25T12:05:29.618Z,14.03
2019-02-25T12:07:56.908Z,14.60
2019-02-25T12:10:24.258Z,15.10
2019-02-25T12:12:51.552Z,13.77
2019-02-25T12:15:39.756Z,14.20
2019-02-25T12:18:07.174Z,14.23
2019-02-25T12:20:34.526Z,14.40
2019-02-25T12:23:01.824Z,15.17
2019-02-25T12:25:29.288Z,15.03
2019-02-25T12:27:56.647Z,14.27
2019-02-25T12:30:44.752Z,13.97
2019-02-25T12:33:12.058Z,12.87
2019-02-25T12:35:39.420Z,12.80
2019-02-25T12:38:06.796Z,13.50
2019-02-25T12:40:34.090Z,14.00
2019-02-25T12:43:01.409Z,12.73
2019-02-25T12:45:28.698Z,12.23
2019-02-25T12:47:56.044Z,11.90
2019-02-25T12:50:23.342Z,11.13
2019-02-25T12:52:51.772Z,12.93
2019-02-25T13:01:04.816Z,13.68
2019-02-25T13:03:32.210Z,13.83
2019-02-25T13:06:01.472Z,12.90
2019-02-25T13:08:28.623Z,12.75
2019-02-25T13:10:56.041Z,13.75
2019-02-25T13:13:23.464Z,13.62
2019-02-25T13:15:50.772Z,11.78
2019-02-25T13:18:18.619Z,12.93
2019-02-25T13:20:46.043Z,12.10
2019-02-25T13:23:13.420Z,13.05
2019-02-25T13:25:40.865Z,11.78
2019-02-25T13:28:08.340Z,12.28
2019-02-25T13:30:35.839Z,12.50
2019-02-25T13:33:03.259Z,11.38
2019-02-25T13:35:50.140Z,12.78
2019-02-25T13:38:17.604Z,12.60
2019-02-25T13:40:45.064Z,12.13
2019-02-25T13:43:12.482Z,12.80
2019-02-25T13:45:39.843Z,11.20
2019-02-25T13:48:07.523Z,11.43
2019-02-25T13:50:34.909Z,12.73
2019-02-25T13:53:04.999Z,11.08
2019-02-25T13:55:32.410Z,11.00
2019-02-25T13:58:00.057Z,11.70
2019-02-25T14:03:21.507Z,11.33
2019-02-25T14:05:48.883Z,13.08
2019-02-25T14:08:16.294Z,12.55
2019-02-25T14:10:44.060Z,14.60
2019-02-25T14:13:32.575Z,12.60
2019-02-25T14:15:59.964Z,13.60
2019-02-25T14:18:27.342Z,12.15
2019-02-25T14:20:54.749Z,12.95
2019-02-25T14:23:22.353Z,12.28
2019-02-25T14:25:49.737Z,12.50
2019-02-25T14:28:17.123Z,11.73
2019-02-25T14:30:44.529Z,10.55
2019-02-25T14:33:12.743Z,10.25
2019-02-25T14:38:48.188Z,9.95
2019-02-25T14:41:16.179Z,11.43
2019-02-25T14:43:47.049Z,10.50
2019-02-25T14:46:14.450Z,10.75
2019-02-25T14:48:42.872Z,11.70
2019-02-25T14:51:10.260Z,11.90
2019-02-25T14:53:37.686Z,11.63
2019-02-25T14:56:05.083Z,11.95
2019-02-25T14:58:35.578Z,10.98
2019-02-25T15:01:01.543Z,11.48
2019-02-25T15:03:29.194Z,11.35
2019-02-25T15:05:57.082Z,10.93
2019-02-25T15:08:26.329Z,10.68
2019-02-25T15:10:55.540Z,12.13
2019-02-25T15:13:24.436Z,10.95
2019-02-25T15:15:52.885Z,10.15
2019-02-25T15:18:22.023Z,10.48
2019-02-25T15:20:49.263Z,11.93
2019-02-25T15:23:18.551Z,11.55
2019-02-25T15:25:47.183Z,10.72
2019-02-25T15:28:16.157Z,10.15
2019-02-25T15:30:43.788Z,10.03
2019-02-25T15:33:11.296Z,10.43
2019-02-25T15:35:39.384Z,10.03
2019-02-25T15:38:07.849Z,11.93
2019-02-25T15:40:35.261Z,10.50
2019-02-25T15:43:25.417Z,9.70
2019-02-25T15:45:52.589Z,10.28
2019-02-25T15:48:21.235Z,11.90
2019-02-25T15:53:42.447Z,10.43
2019-02-25T15:56:32.126Z,10.20
2019-02-25T15:58:59.563Z,11.78
2019-02-25T16:01:27.025Z,11.90
2019-02-25T16:04:15.272Z,12.33
2019-02-25T16:06:42.715Z,11.90
2019-02-25T16:09:10.185Z,11.68
2019-02-25T16:11:39.328Z,12.45
2019-02-25T16:14:07.075Z,11.85
2019-02-25T16:16:35.952Z,12.15
2019-02-25T16:19:05.576Z,11.80
2019-02-25T16:21:32.345Z,11.12
2019-02-25T16:24:04.066Z,12.47
2019-02-25T16:26:29.113Z,13.03
2019-02-25T16:28:59.033Z,12.95
2019-02-25T16:31:26.530Z,13.35
2019-02-25T16:33:55.506Z,13.48
2019-02-25T16:36:24.566Z,14.50
2019-02-25T16:38:53.629Z,14.05
2019-02-25T16:41:27.376Z,15.63
2019-02-25T16:43:50.911Z,13.00
2019-02-25T16:46:20.214Z,13.05
2019-02-25T16:48:48.392Z,14.80
2019-02-25T16:51:16.591Z,13.98
2019-02-25T16:53:45.545Z,14.38
2019-02-25T16:56:14.185Z,13.93
2019-02-25T16:58:42.607Z,13.70
2019-02-25T17:01:12.621Z,13.95
2019-02-25T17:03:41.489Z,13.43
2019-02-25T17:06:11.638Z,14.55
2019-02-25T17:08:39.212Z,19.30
2019-02-25T17:11:06.631Z,18.75
2019-02-25T17:13:34.805Z,18.82
2019-02-25T17:16:04.052Z,15.00
2019-02-25T17:18:31.654Z,14.60
2019-02-25T17:20:59.068Z,15.32
2019-02-25T17:23:27.559Z,16.80
2019-02-25T17:26:03.817Z,14.45
2019-02-25T17:28:33.749Z,15.18
2019-02-25T17:31:22.277Z,14.25
2019-02-25T17:33:51.345Z,14.70
2019-02-25T17:36:18.813Z,14.55
2019-02-25T17:38:49.666Z,14.43
2019-02-25T17:41:17.162Z,14.58
2019-02-25T17:43:44.542Z,14.03
2019-02-25T17:46:12.771Z,14.28
2019-02-25T17:48:40.916Z,14.50
2019-02-25T17:51:08.373Z,14.58
2019-02-25T17:53:35.733Z,14.50
2019-02-25T17:56:03.266Z,16.23
2019-02-25T18:01:24.188Z,14.95
2019-02-25T18:04:12.164Z,13.62
2019-02-25T18:27:41.335Z,14.68
